sensor_id;sensor_type;location;lat;lon;timestamp;temperature;humidity
5130;DHT22;2583;50.946;6.954;2022-11-14T00:00:30;9.50;51.00
5130;DHT22;2583;50.946;6.954;2022-11-14T00:03:02;9.40;50.80
5130;DHT22;2583;50.946;6.954;2022-11-14T00:05:29;9.50;50.30
5130;DHT22;2583;50.946;6.954;2022-11-14T00:07:56;9.40;50.20
5130;DHT22;2583;50.946;6.954;2022-11-14T00:10:23;9.40;50.00
5130;DHT22;2583;50.946;6.954;2022-11-14T00:12:50;9.40;49.50
5130;DHT22;2583;50.946;6.954;2022-11-14T00:15:17;9.40;51.00
5130;DHT22;2583;50.946;6.954;2022-11-14T00:17:44;9.30;48.70
5130;DHT22;2583;50.946;6.954;2022-11-14T00:20:11;9.30;48.90
5130;DHT22;2583;50.946;6.954;2022-11-14T00:22:38;9.20;50.70
5130;DHT22;2583;50.946;6.954;2022-11-14T00:25:05;9.20;50.40
5130;DHT22;2583;50.946;6.954;2022-11-14T00:27:31;9.20;50.70
5130;DHT22;2583;50.946;6.954;2022-11-14T00:29:58;9.10;52.80
5130;DHT22;2583;50.946;6.954;2022-11-14T00:32:25;9.10;53.90
5130;DHT22;2583;50.946;6.954;2022-11-14T00:34:52;9.00;55.40
5130;DHT22;2583;50.946;6.954;2022-11-14T00:37:18;8.90;56.50
5130;DHT22;2583;50.946;6.954;2022-11-14T00:39:45;8.90;58.00
5130;DHT22;2583;50.946;6.954;2022-11-14T00:42:12;8.90;57.90
5130;DHT22;2583;50.946;6.954;2022-11-14T00:44:39;8.90;59.20
5130;DHT22;2583;50.946;6.954;2022-11-14T00:47:06;8.80;60.70
5130;DHT22;2583;50.946;6.954;2022-11-14T00:49:32;8.70;61.10
5130;DHT22;2583;50.946;6.954;2022-11-14T00:51:59;8.70;60.60
5130;DHT22;2583;50.946;6.954;2022-11-14T00:54:26;8.60;60.90
5130;DHT22;2583;50.946;6.954;2022-11-14T00:56:53;8.60;60.50
5130;DHT22;2583;50.946;6.954;2022-11-14T00:59:20;8.60;62.80
5130;DHT22;2583;50.946;6.954;2022-11-14T01:01:46;8.60;63.30
5130;DHT22;2583;50.946;6.954;2022-11-14T01:04:13;8.60;63.30
5130;DHT22;2583;50.946;6.954;2022-11-14T01:06:40;8.60;63.70
5130;DHT22;2583;50.946;6.954;2022-11-14T01:09:07;8.60;65.20
5130;DHT22;2583;50.946;6.954;2022-11-14T01:11:34;8.50;65.80
5130;DHT22;2583;50.946;6.954;2022-11-14T01:14:00;8.50;66.20
5130;DHT22;2583;50.946;6.954;2022-11-14T01:16:27;8.50;67.70
5130;DHT22;2583;50.946;6.954;2022-11-14T01:18:54;8.50;69.30
5130;DHT22;2583;50.946;6.954;2022-11-14T01:21:20;8.50;71.00
5130;DHT22;2583;50.946;6.954;2022-11-14T01:23:47;8.40;73.80
5130;DHT22;2583;50.946;6.954;2022-11-14T01:26:14;8.40;73.40
5130;DHT22;2583;50.946;6.954;2022-11-14T01:28:41;8.40;73.90
5130;DHT22;2583;50.946;6.954;2022-11-14T01:31:21;8.40;75.00
5130;DHT22;2583;50.946;6.954;2022-11-14T01:33:50;8.30;75.40
5130;DHT22;2583;50.946;6.954;2022-11-14T01:36:18;8.30;75.10
5130;DHT22;2583;50.946;6.954;2022-11-14T01:38:45;8.30;79.00
5130;DHT22;2583;50.946;6.954;2022-11-14T01:41:14;8.30;79.20
5130;DHT22;2583;50.946;6.954;2022-11-14T01:43:41;8.30;78.60
5130;DHT22;2583;50.946;6.954;2022-11-14T01:48:53;8.20;84.50
5130;DHT22;2583;50.946;6.954;2022-11-14T01:54:27;8.10;87.50
5130;DHT22;2583;50.946;6.954;2022-11-14T01:56:57;8.10;89.60
5130;DHT22;2583;50.946;6.954;2022-11-14T01:59:30;8.00;91.20
5130;DHT22;2583;50.946;6.954;2022-11-14T02:02:02;8.00;92.00
5130;DHT22;2583;50.946;6.954;2022-11-14T02:04:34;8.00;93.20
5130;DHT22;2583;50.946;6.954;2022-11-14T02:07:03;8.00;93.60
5130;DHT22;2583;50.946;6.954;2022-11-14T02:09:34;8.00;93.00
5130;DHT22;2583;50.946;6.954;2022-11-14T02:12:03;8.00;92.40
5130;DHT22;2583;50.946;6.954;2022-11-14T02:14:32;8.00;91.30
5130;DHT22;2583;50.946;6.954;2022-11-14T02:16:59;8.00;92.20
5130;DHT22;2583;50.946;6.954;2022-11-14T02:19:52;7.90;91.50
5130;DHT22;2583;50.946;6.954;2022-11-14T02:22:20;8.00;90.60
5130;DHT22;2583;50.946;6.954;2022-11-14T02:24:47;8.00;92.20
5130;DHT22;2583;50.946;6.954;2022-11-14T02:27:14;7.90;92.20
5130;DHT22;2583;50.946;6.954;2022-11-14T02:29:42;8.00;90.80
5130;DHT22;2583;50.946;6.954;2022-11-14T02:32:09;8.00;90.30
5130;DHT22;2583;50.946;6.954;2022-11-14T02:34:37;7.90;91.60
5130;DHT22;2583;50.946;6.954;2022-11-14T02:37:04;7.90;90.20
5130;DHT22;2583;50.946;6.954;2022-11-14T02:39:31;8.00;90.80
5130;DHT22;2583;50.946;6.954;2022-11-14T02:41:58;7.90;90.60
5130;DHT22;2583;50.946;6.954;2022-11-14T02:44:25;7.90;89.40
5130;DHT22;2583;50.946;6.954;2022-11-14T02:46:51;7.90;85.60
5130;DHT22;2583;50.946;6.954;2022-11-14T02:49:18;7.90;85.00
5130;DHT22;2583;50.946;6.954;2022-11-14T02:51:45;7.90;82.20
5130;DHT22;2583;50.946;6.954;2022-11-14T02:54:12;7.90;83.90
5130;DHT22;2583;50.946;6.954;2022-11-14T02:56:39;7.80;85.10
5130;DHT22;2583;50.946;6.954;2022-11-14T02:59:05;7.80;84.00
5130;DHT22;2583;50.946;6.954;2022-11-14T03:01:32;7.80;84.10
5130;DHT22;2583;50.946;6.954;2022-11-14T03:03:59;7.80;83.60
5130;DHT22;2583;50.946;6.954;2022-11-14T03:06:26;7.80;85.00
5130;DHT22;2583;50.946;6.954;2022-11-14T03:08:52;7.70;85.70
5130;DHT22;2583;50.946;6.954;2022-11-14T03:11:19;7.70;86.40
5130;DHT22;2583;50.946;6.954;2022-11-14T03:13:46;7.70;87.80
5130;DHT22;2583;50.946;6.954;2022-11-14T03:16:13;7.70;90.10
5130;DHT22;2583;50.946;6.954;2022-11-14T03:18:40;7.70;90.90
5130;DHT22;2583;50.946;6.954;2022-11-14T03:21:08;7.70;91.30
5130;DHT22;2583;50.946;6.954;2022-11-14T03:23:36;7.70;92.40
5130;DHT22;2583;50.946;6.954;2022-11-14T03:26:05;7.60;92.40
5130;DHT22;2583;50.946;6.954;2022-11-14T03:28:33;7.60;92.60
5130;DHT22;2583;50.946;6.954;2022-11-14T03:30:59;7.60;93.30
5130;DHT22;2583;50.946;6.954;2022-11-14T03:33:26;7.50;94.30
5130;DHT22;2583;50.946;6.954;2022-11-14T03:35:53;7.50;95.40
5130;DHT22;2583;50.946;6.954;2022-11-14T03:38:20;7.50;95.90
5130;DHT22;2583;50.946;6.954;2022-11-14T03:40:49;7.40;96.40
5130;DHT22;2583;50.946;6.954;2022-11-14T03:43:17;7.40;96.80
5130;DHT22;2583;50.946;6.954;2022-11-14T03:45:45;7.30;97.10
5130;DHT22;2583;50.946;6.954;2022-11-14T03:48:12;7.30;97.50
5130;DHT22;2583;50.946;6.954;2022-11-14T03:50:40;7.30;97.40
5130;DHT22;2583;50.946;6.954;2022-11-14T03:53:07;7.30;97.60
5130;DHT22;2583;50.946;6.954;2022-11-14T03:55:34;7.30;97.90
5130;DHT22;2583;50.946;6.954;2022-11-14T03:58:01;7.30;98.40
5130;DHT22;2583;50.946;6.954;2022-11-14T04:00:28;7.30;98.90
5130;DHT22;2583;50.946;6.954;2022-11-14T04:02:55;7.30;99.10
5130;DHT22;2583;50.946;6.954;2022-11-14T04:05:23;7.30;99.60
5130;DHT22;2583;50.946;6.954;2022-11-14T04:07:50;7.20;99.90
5130;DHT22;2583;50.946;6.954;2022-11-14T04:10:17;7.20;99.90
5130;DHT22;2583;50.946;6.954;2022-11-14T04:12:52;7.20;99.90
5130;DHT22;2583;50.946;6.954;2022-11-14T04:15:19;7.10;99.90
5130;DHT22;2583;50.946;6.954;2022-11-14T04:17:46;7.10;99.90
5130;DHT22;2583;50.946;6.954;2022-11-14T04:20:13;7.10;99.90
5130;DHT22;2583;50.946;6.954;2022-11-14T04:22:40;7.10;99.90
5130;DHT22;2583;50.946;6.954;2022-11-14T04:25:08;7.10;99.90
5130;DHT22;2583;50.946;6.954;2022-11-14T04:27:35;7.00;99.90
5130;DHT22;2583;50.946;6.954;2022-11-14T04:30:03;7.10;99.90
5130;DHT22;2583;50.946;6.954;2022-11-14T04:32:30;7.00;99.90
5130;DHT22;2583;50.946;6.954;2022-11-14T04:34:57;7.00;99.90
5130;DHT22;2583;50.946;6.954;2022-11-14T04:37:23;6.90;99.90
5130;DHT22;2583;50.946;6.954;2022-11-14T04:39:50;6.90;99.90
5130;DHT22;2583;50.946;6.954;2022-11-14T04:42:17;7.00;99.90
5130;DHT22;2583;50.946;6.954;2022-11-14T04:44:44;6.90;99.90
5130;DHT22;2583;50.946;6.954;2022-11-14T04:47:10;6.90;99.90
5130;DHT22;2583;50.946;6.954;2022-11-14T04:49:37;6.90;99.90
5130;DHT22;2583;50.946;6.954;2022-11-14T04:52:04;7.00;99.90
5130;DHT22;2583;50.946;6.954;2022-11-14T04:54:32;7.00;99.90
5130;DHT22;2583;50.946;6.954;2022-11-14T04:56:59;7.00;99.90
5130;DHT22;2583;50.946;6.954;2022-11-14T04:59:26;7.00;99.90
5130;DHT22;2583;50.946;6.954;2022-11-14T05:01:52;7.00;99.90
5130;DHT22;2583;50.946;6.954;2022-11-14T05:04:19;7.00;99.90
5130;DHT22;2583;50.946;6.954;2022-11-14T05:06:46;7.10;99.90
5130;DHT22;2583;50.946;6.954;2022-11-14T05:09:13;7.10;99.90
5130;DHT22;2583;50.946;6.954;2022-11-14T05:11:39;7.10;99.90
5130;DHT22;2583;50.946;6.954;2022-11-14T05:14:06;7.20;99.90
5130;DHT22;2583;50.946;6.954;2022-11-14T05:16:33;7.10;99.90
5130;DHT22;2583;50.946;6.954;2022-11-14T05:19:00;7.10;99.90
5130;DHT22;2583;50.946;6.954;2022-11-14T05:21:26;7.20;99.90
5130;DHT22;2583;50.946;6.954;2022-11-14T05:23:53;7.20;99.90
5130;DHT22;2583;50.946;6.954;2022-11-14T05:26:20;7.10;99.90
5130;DHT22;2583;50.946;6.954;2022-11-14T05:28:47;7.10;99.90
5130;DHT22;2583;50.946;6.954;2022-11-14T05:31:14;7.00;99.90
5130;DHT22;2583;50.946;6.954;2022-11-14T05:33:44;7.00;99.90
5130;DHT22;2583;50.946;6.954;2022-11-14T05:36:13;7.00;99.90
5130;DHT22;2583;50.946;6.954;2022-11-14T05:38:40;7.00;99.90
5130;DHT22;2583;50.946;6.954;2022-11-14T05:41:17;7.00;99.90
5130;DHT22;2583;50.946;6.954;2022-11-14T05:43:47;7.00;99.90
5130;DHT22;2583;50.946;6.954;2022-11-14T05:46:15;6.90;99.90
5130;DHT22;2583;50.946;6.954;2022-11-14T05:48:42;6.90;99.90
5130;DHT22;2583;50.946;6.954;2022-11-14T05:51:10;6.90;99.90
5130;DHT22;2583;50.946;6.954;2022-11-14T05:53:38;6.80;99.90
5130;DHT22;2583;50.946;6.954;2022-11-14T05:56:08;6.90;99.90
5130;DHT22;2583;50.946;6.954;2022-11-14T05:58:35;6.90;99.90
5130;DHT22;2583;50.946;6.954;2022-11-14T06:03:38;6.90;99.90
5130;DHT22;2583;50.946;6.954;2022-11-14T06:06:06;6.90;99.90
5130;DHT22;2583;50.946;6.954;2022-11-14T06:08:33;6.90;99.90
5130;DHT22;2583;50.946;6.954;2022-11-14T06:11:02;6.90;99.90
5130;DHT22;2583;50.946;6.954;2022-11-14T06:13:30;6.80;99.90
5130;DHT22;2583;50.946;6.954;2022-11-14T06:16:05;6.80;99.90
5130;DHT22;2583;50.946;6.954;2022-11-14T06:18:32;6.80;99.90
5130;DHT22;2583;50.946;6.954;2022-11-14T06:21:00;6.80;99.90
5130;DHT22;2583;50.946;6.954;2022-11-14T06:23:27;6.80;99.90
5130;DHT22;2583;50.946;6.954;2022-11-14T06:26:01;6.80;99.90
5130;DHT22;2583;50.946;6.954;2022-11-14T06:28:28;6.80;99.90
5130;DHT22;2583;50.946;6.954;2022-11-14T06:30:57;6.80;99.90
5130;DHT22;2583;50.946;6.954;2022-11-14T06:33:25;6.80;99.90
5130;DHT22;2583;50.946;6.954;2022-11-14T06:36:03;6.80;99.90
5130;DHT22;2583;50.946;6.954;2022-11-14T06:38:32;6.80;99.90
5130;DHT22;2583;50.946;6.954;2022-11-14T06:41:05;6.80;99.90
5130;DHT22;2583;50.946;6.954;2022-11-14T06:43:36;6.80;99.90
5130;DHT22;2583;50.946;6.954;2022-11-14T06:46:04;6.90;99.90
5130;DHT22;2583;50.946;6.954;2022-11-14T06:48:31;6.90;99.90
5130;DHT22;2583;50.946;6.954;2022-11-14T06:51:00;6.80;99.90
5130;DHT22;2583;50.946;6.954;2022-11-14T06:53:29;6.90;99.90
5130;DHT22;2583;50.946;6.954;2022-11-14T06:56:02;7.00;99.90
5130;DHT22;2583;50.946;6.954;2022-11-14T06:58:31;7.00;99.90
5130;DHT22;2583;50.946;6.954;2022-11-14T07:01:07;7.10;99.90
5130;DHT22;2583;50.946;6.954;2022-11-14T07:03:34;7.10;99.90
5130;DHT22;2583;50.946;6.954;2022-11-14T07:06:01;7.10;99.90
5130;DHT22;2583;50.946;6.954;2022-11-14T07:08:29;7.10;99.90
5130;DHT22;2583;50.946;6.954;2022-11-14T07:11:06;7.20;99.90
5130;DHT22;2583;50.946;6.954;2022-11-14T07:13:34;7.30;99.90
5130;DHT22;2583;50.946;6.954;2022-11-14T07:16:02;7.30;99.90
5130;DHT22;2583;50.946;6.954;2022-11-14T07:18:30;7.30;99.90
5130;DHT22;2583;50.946;6.954;2022-11-14T07:21:03;7.30;99.90
5130;DHT22;2583;50.946;6.954;2022-11-14T07:23:34;7.40;99.90
5130;DHT22;2583;50.946;6.954;2022-11-14T07:26:02;7.40;99.90
5130;DHT22;2583;50.946;6.954;2022-11-14T07:28:30;7.50;99.90
5130;DHT22;2583;50.946;6.954;2022-11-14T07:30:58;7.50;99.90
5130;DHT22;2583;50.946;6.954;2022-11-14T07:33:24;7.50;99.90
5130;DHT22;2583;50.946;6.954;2022-11-14T07:35:51;7.50;99.90
5130;DHT22;2583;50.946;6.954;2022-11-14T07:38:18;7.60;99.90
5130;DHT22;2583;50.946;6.954;2022-11-14T07:40:55;7.60;99.90
5130;DHT22;2583;50.946;6.954;2022-11-14T07:43:26;7.60;99.90
5130;DHT22;2583;50.946;6.954;2022-11-14T07:45:53;7.70;99.90
5130;DHT22;2583;50.946;6.954;2022-11-14T07:48:20;7.70;99.90
5130;DHT22;2583;50.946;6.954;2022-11-14T07:50:48;7.70;99.90
5130;DHT22;2583;50.946;6.954;2022-11-14T07:53:15;7.70;99.90
5130;DHT22;2583;50.946;6.954;2022-11-14T07:55:43;7.80;99.90
5130;DHT22;2583;50.946;6.954;2022-11-14T07:58:10;7.80;99.90
5130;DHT22;2583;50.946;6.954;2022-11-14T08:00:37;7.90;99.90
5130;DHT22;2583;50.946;6.954;2022-11-14T08:03:06;7.90;99.90
5130;DHT22;2583;50.946;6.954;2022-11-14T08:05:34;7.90;99.90
5130;DHT22;2583;50.946;6.954;2022-11-14T08:08:01;7.90;99.90
5130;DHT22;2583;50.946;6.954;2022-11-14T08:10:28;7.90;99.90
5130;DHT22;2583;50.946;6.954;2022-11-14T08:13:03;8.00;99.90
5130;DHT22;2583;50.946;6.954;2022-11-14T08:15:50;7.90;99.90
5130;DHT22;2583;50.946;6.954;2022-11-14T08:18:17;7.90;99.90
5130;DHT22;2583;50.946;6.954;2022-11-14T08:20:44;7.90;99.90
5130;DHT22;2583;50.946;6.954;2022-11-14T08:23:12;7.90;99.90
5130;DHT22;2583;50.946;6.954;2022-11-14T08:25:40;7.90;99.90
5130;DHT22;2583;50.946;6.954;2022-11-14T08:28:07;7.90;99.90
5130;DHT22;2583;50.946;6.954;2022-11-14T08:30:34;8.00;99.90
5130;DHT22;2583;50.946;6.954;2022-11-14T08:33:03;8.10;99.90
5130;DHT22;2583;50.946;6.954;2022-11-14T08:35:32;8.10;99.90
5130;DHT22;2583;50.946;6.954;2022-11-14T08:38:01;8.10;99.90
5130;DHT22;2583;50.946;6.954;2022-11-14T08:40:29;8.10;99.90
5130;DHT22;2583;50.946;6.954;2022-11-14T08:43:00;8.20;99.90
5130;DHT22;2583;50.946;6.954;2022-11-14T08:45:28;8.20;99.90
5130;DHT22;2583;50.946;6.954;2022-11-14T08:47:55;8.20;99.90
5130;DHT22;2583;50.946;6.954;2022-11-14T08:50:22;8.30;99.90
5130;DHT22;2583;50.946;6.954;2022-11-14T08:52:50;8.30;99.90
5130;DHT22;2583;50.946;6.954;2022-11-14T08:55:19;8.20;99.90
5130;DHT22;2583;50.946;6.954;2022-11-14T08:57:46;8.30;99.90
5130;DHT22;2583;50.946;6.954;2022-11-14T09:00:16;8.20;99.90
5130;DHT22;2583;50.946;6.954;2022-11-14T09:02:43;8.20;99.90
5130;DHT22;2583;50.946;6.954;2022-11-14T09:05:10;8.30;99.90
5130;DHT22;2583;50.946;6.954;2022-11-14T09:07:37;8.30;99.90
5130;DHT22;2583;50.946;6.954;2022-11-14T09:10:04;8.30;99.90
5130;DHT22;2583;50.946;6.954;2022-11-14T09:12:32;8.30;99.90
5130;DHT22;2583;50.946;6.954;2022-11-14T09:14:59;8.40;99.90
5130;DHT22;2583;50.946;6.954;2022-11-14T09:17:25;8.40;99.90
5130;DHT22;2583;50.946;6.954;2022-11-14T09:19:52;8.40;99.90
5130;DHT22;2583;50.946;6.954;2022-11-14T09:22:19;8.40;99.90
5130;DHT22;2583;50.946;6.954;2022-11-14T09:24:46;8.50;99.90
5130;DHT22;2583;50.946;6.954;2022-11-14T09:27:15;8.50;99.90
5130;DHT22;2583;50.946;6.954;2022-11-14T09:29:43;8.60;99.90
5130;DHT22;2583;50.946;6.954;2022-11-14T09:32:09;8.60;99.90
5130;DHT22;2583;50.946;6.954;2022-11-14T09:34:36;8.60;99.90
5130;DHT22;2583;50.946;6.954;2022-11-14T09:37:08;8.50;99.90
5130;DHT22;2583;50.946;6.954;2022-11-14T09:39:35;8.60;99.90
5130;DHT22;2583;50.946;6.954;2022-11-14T09:44:57;8.50;99.90
5130;DHT22;2583;50.946;6.954;2022-11-14T09:47:29;8.60;99.90
5130;DHT22;2583;50.946;6.954;2022-11-14T09:50:05;8.60;99.90
5130;DHT22;2583;50.946;6.954;2022-11-14T09:52:41;8.70;99.90
5130;DHT22;2583;50.946;6.954;2022-11-14T09:57:45;8.80;99.90
5130;DHT22;2583;50.946;6.954;2022-11-14T10:00:19;8.90;99.90
5130;DHT22;2583;50.946;6.954;2022-11-14T10:03:15;8.90;99.90
5130;DHT22;2583;50.946;6.954;2022-11-14T10:11:28;9.10;99.90
5130;DHT22;2583;50.946;6.954;2022-11-14T10:19:54;9.10;99.90
5130;DHT22;2583;50.946;6.954;2022-11-14T10:30:57;9.20;99.90
5130;DHT22;2583;50.946;6.954;2022-11-14T10:33:54;9.20;99.90
5130;DHT22;2583;50.946;6.954;2022-11-14T10:36:52;9.20;99.90
5130;DHT22;2583;50.946;6.954;2022-11-14T10:39:31;9.10;99.90
5130;DHT22;2583;50.946;6.954;2022-11-14T10:42:04;9.20;99.90
5130;DHT22;2583;50.946;6.954;2022-11-14T10:44:40;9.20;99.90
5130;DHT22;2583;50.946;6.954;2022-11-14T10:47:13;9.30;99.90
5130;DHT22;2583;50.946;6.954;2022-11-14T10:49:43;9.30;99.90
5130;DHT22;2583;50.946;6.954;2022-11-14T10:52:15;9.30;99.90
5130;DHT22;2583;50.946;6.954;2022-11-14T10:54:58;9.50;99.90
5130;DHT22;2583;50.946;6.954;2022-11-14T10:57:27;9.60;99.90
5130;DHT22;2583;50.946;6.954;2022-11-14T10:59:54;9.80;99.90
5130;DHT22;2583;50.946;6.954;2022-11-14T11:02:22;9.80;99.90
5130;DHT22;2583;50.946;6.954;2022-11-14T11:04:48;9.80;99.90
5130;DHT22;2583;50.946;6.954;2022-11-14T11:07:21;9.90;99.90
5130;DHT22;2583;50.946;6.954;2022-11-14T11:10:19;9.90;99.90
5130;DHT22;2583;50.946;6.954;2022-11-14T11:13:05;10.00;99.90
5130;DHT22;2583;50.946;6.954;2022-11-14T11:15:39;9.90;99.90
5130;DHT22;2583;50.946;6.954;2022-11-14T11:21:06;9.90;99.90
5130;DHT22;2583;50.946;6.954;2022-11-14T11:23:34;10.00;99.90
5130;DHT22;2583;50.946;6.954;2022-11-14T11:26:16;9.90;99.90
5130;DHT22;2583;50.946;6.954;2022-11-14T11:29:03;9.80;99.90
5130;DHT22;2583;50.946;6.954;2022-11-14T11:32:03;9.90;99.90
5130;DHT22;2583;50.946;6.954;2022-11-14T11:34:31;9.90;99.90
5130;DHT22;2583;50.946;6.954;2022-11-14T11:37:17;9.80;99.90
5130;DHT22;2583;50.946;6.954;2022-11-14T11:39:48;9.90;99.90
5130;DHT22;2583;50.946;6.954;2022-11-14T11:42:37;10.00;99.90
5130;DHT22;2583;50.946;6.954;2022-11-14T11:45:26;10.00;99.90
5130;DHT22;2583;50.946;6.954;2022-11-14T11:48:00;10.10;99.90
5130;DHT22;2583;50.946;6.954;2022-11-14T11:50:31;10.10;99.90
5130;DHT22;2583;50.946;6.954;2022-11-14T11:55:49;10.20;99.90
5130;DHT22;2583;50.946;6.954;2022-11-14T11:58:40;10.10;99.90
5130;DHT22;2583;50.946;6.954;2022-11-14T12:01:10;10.10;99.90
5130;DHT22;2583;50.946;6.954;2022-11-14T12:03:37;10.10;99.90
5130;DHT22;2583;50.946;6.954;2022-11-14T12:06:21;10.10;99.90
5130;DHT22;2583;50.946;6.954;2022-11-14T12:09:13;10.20;99.90
5130;DHT22;2583;50.946;6.954;2022-11-14T12:11:45;10.20;99.90
5130;DHT22;2583;50.946;6.954;2022-11-14T12:20:31;10.30;99.90
5130;DHT22;2583;50.946;6.954;2022-11-14T12:23:28;10.30;99.90
5130;DHT22;2583;50.946;6.954;2022-11-14T12:31:33;10.10;99.90
5130;DHT22;2583;50.946;6.954;2022-11-14T12:34:11;10.00;99.90
5130;DHT22;2583;50.946;6.954;2022-11-14T12:36:43;10.10;99.90
5130;DHT22;2583;50.946;6.954;2022-11-14T12:39:28;10.20;99.90
5130;DHT22;2583;50.946;6.954;2022-11-14T12:42:06;10.10;99.90
5130;DHT22;2583;50.946;6.954;2022-11-14T12:44:38;10.10;99.90
5130;DHT22;2583;50.946;6.954;2022-11-14T12:49:37;10.00;99.90
5130;DHT22;2583;50.946;6.954;2022-11-14T13:01:03;9.90;99.90
5130;DHT22;2583;50.946;6.954;2022-11-14T13:03:52;10.00;99.90
5130;DHT22;2583;50.946;6.954;2022-11-14T13:06:43;10.00;99.90
5130;DHT22;2583;50.946;6.954;2022-11-14T13:11:57;9.90;99.90
5130;DHT22;2583;50.946;6.954;2022-11-14T13:14:49;9.90;99.90
5130;DHT22;2583;50.946;6.954;2022-11-14T13:17:40;10.00;99.90
5130;DHT22;2583;50.946;6.954;2022-11-14T13:20:34;10.00;99.90
5130;DHT22;2583;50.946;6.954;2022-11-14T13:28:51;10.00;99.90
5130;DHT22;2583;50.946;6.954;2022-11-14T13:34:32;10.00;99.90
5130;DHT22;2583;50.946;6.954;2022-11-14T13:37:25;10.00;99.90
5130;DHT22;2583;50.946;6.954;2022-11-14T13:50:39;9.90;99.90
5130;DHT22;2583;50.946;6.954;2022-11-14T13:53:16;9.90;99.90
5130;DHT22;2583;50.946;6.954;2022-11-14T13:56:07;9.90;99.90
5130;DHT22;2583;50.946;6.954;2022-11-14T14:07:37;9.90;99.90
5130;DHT22;2583;50.946;6.954;2022-11-14T14:16:06;10.00;99.90
5130;DHT22;2583;50.946;6.954;2022-11-14T14:24:10;10.10;99.90
5130;DHT22;2583;50.946;6.954;2022-11-14T14:32:26;10.10;99.90
5130;DHT22;2583;50.946;6.954;2022-11-14T14:34:53;10.10;99.90
5130;DHT22;2583;50.946;6.954;2022-11-14T14:37:26;10.10;99.90
5130;DHT22;2583;50.946;6.954;2022-11-14T14:40:20;10.10;99.90
5130;DHT22;2583;50.946;6.954;2022-11-14T14:42:47;10.10;99.90
5130;DHT22;2583;50.946;6.954;2022-11-14T14:45:18;10.10;99.90
5130;DHT22;2583;50.946;6.954;2022-11-14T14:48:00;10.10;99.90
5130;DHT22;2583;50.946;6.954;2022-11-14T14:50:48;10.00;99.90
5130;DHT22;2583;50.946;6.954;2022-11-14T14:53:26;10.00;99.90
5130;DHT22;2583;50.946;6.954;2022-11-14T14:55:56;9.90;99.90
5130;DHT22;2583;50.946;6.954;2022-11-14T14:58:26;10.00;99.90
5130;DHT22;2583;50.946;6.954;2022-11-14T15:01:06;10.00;99.90
5130;DHT22;2583;50.946;6.954;2022-11-14T15:03:47;9.90;99.90
5130;DHT22;2583;50.946;6.954;2022-11-14T15:06:27;9.90;99.90
5130;DHT22;2583;50.946;6.954;2022-11-14T15:09:00;9.90;99.90
5130;DHT22;2583;50.946;6.954;2022-11-14T15:11:28;9.90;99.90
5130;DHT22;2583;50.946;6.954;2022-11-14T15:13:59;9.90;99.90
5130;DHT22;2583;50.946;6.954;2022-11-14T15:16:28;9.90;99.90
5130;DHT22;2583;50.946;6.954;2022-11-14T15:18:56;9.90;99.90
5130;DHT22;2583;50.946;6.954;2022-11-14T15:21:28;9.90;99.90
5130;DHT22;2583;50.946;6.954;2022-11-14T15:24:21;9.90;99.90
5130;DHT22;2583;50.946;6.954;2022-11-14T15:26:49;9.90;99.90
5130;DHT22;2583;50.946;6.954;2022-11-14T15:29:24;9.90;99.90
5130;DHT22;2583;50.946;6.954;2022-11-14T15:31:59;9.90;99.90
5130;DHT22;2583;50.946;6.954;2022-11-14T15:34:35;9.90;99.90
5130;DHT22;2583;50.946;6.954;2022-11-14T15:39:42;9.90;99.90
5130;DHT22;2583;50.946;6.954;2022-11-14T15:44:43;9.90;99.90
5130;DHT22;2583;50.946;6.954;2022-11-14T15:47:27;9.80;99.90
5130;DHT22;2583;50.946;6.954;2022-11-14T15:52:37;9.90;99.90
5130;DHT22;2583;50.946;6.954;2022-11-14T15:55:13;9.90;99.90
5130;DHT22;2583;50.946;6.954;2022-11-14T15:57:41;9.90;99.90
5130;DHT22;2583;50.946;6.954;2022-11-14T16:00:15;9.90;99.90
5130;DHT22;2583;50.946;6.954;2022-11-14T16:02:53;9.90;99.90
5130;DHT22;2583;50.946;6.954;2022-11-14T16:05:27;9.90;99.90
5130;DHT22;2583;50.946;6.954;2022-11-14T16:07:55;9.90;99.90
5130;DHT22;2583;50.946;6.954;2022-11-14T16:10:24;9.90;99.90
5130;DHT22;2583;50.946;6.954;2022-11-14T16:12:51;9.90;99.90
5130;DHT22;2583;50.946;6.954;2022-11-14T16:15:19;10.00;99.90
5130;DHT22;2583;50.946;6.954;2022-11-14T16:17:48;10.00;99.90
5130;DHT22;2583;50.946;6.954;2022-11-14T16:20:20;10.00;99.90
5130;DHT22;2583;50.946;6.954;2022-11-14T16:22:49;9.90;99.90
5130;DHT22;2583;50.946;6.954;2022-11-14T16:25:21;9.90;99.90
5130;DHT22;2583;50.946;6.954;2022-11-14T16:27:48;9.90;99.90
5130;DHT22;2583;50.946;6.954;2022-11-14T16:30:17;9.90;99.90
5130;DHT22;2583;50.946;6.954;2022-11-14T16:32:45;10.00;99.90
5130;DHT22;2583;50.946;6.954;2022-11-14T16:37:43;10.00;99.90
5130;DHT22;2583;50.946;6.954;2022-11-14T16:40:22;10.00;99.90
5130;DHT22;2583;50.946;6.954;2022-11-14T16:42:49;10.00;99.90
5130;DHT22;2583;50.946;6.954;2022-11-14T16:45:16;10.00;99.90
5130;DHT22;2583;50.946;6.954;2022-11-14T16:47:46;10.00;99.90
5130;DHT22;2583;50.946;6.954;2022-11-14T16:50:14;10.00;99.90
5130;DHT22;2583;50.946;6.954;2022-11-14T16:52:41;10.00;99.90
5130;DHT22;2583;50.946;6.954;2022-11-14T16:55:09;10.00;99.90
5130;DHT22;2583;50.946;6.954;2022-11-14T16:57:37;10.00;99.90
5130;DHT22;2583;50.946;6.954;2022-11-14T17:00:07;10.10;99.90
5130;DHT22;2583;50.946;6.954;2022-11-14T17:02:34;10.00;99.90
5130;DHT22;2583;50.946;6.954;2022-11-14T17:05:01;10.00;99.90
5130;DHT22;2583;50.946;6.954;2022-11-14T17:07:29;10.00;99.90
5130;DHT22;2583;50.946;6.954;2022-11-14T17:09:59;10.00;99.90
5130;DHT22;2583;50.946;6.954;2022-11-14T17:12:27;10.00;99.90
5130;DHT22;2583;50.946;6.954;2022-11-14T17:14:54;10.10;99.90
5130;DHT22;2583;50.946;6.954;2022-11-14T17:17:20;10.10;99.90
5130;DHT22;2583;50.946;6.954;2022-11-14T17:19:48;10.00;99.90
5130;DHT22;2583;50.946;6.954;2022-11-14T17:22:16;10.00;99.90
5130;DHT22;2583;50.946;6.954;2022-11-14T17:24:43;10.00;99.90
5130;DHT22;2583;50.946;6.954;2022-11-14T17:27:10;10.00;99.90
5130;DHT22;2583;50.946;6.954;2022-11-14T17:29:38;10.00;99.90
5130;DHT22;2583;50.946;6.954;2022-11-14T17:32:05;10.10;99.90
5130;DHT22;2583;50.946;6.954;2022-11-14T17:34:32;10.10;99.90
5130;DHT22;2583;50.946;6.954;2022-11-14T17:37:01;10.10;99.90
5130;DHT22;2583;50.946;6.954;2022-11-14T17:39:27;10.10;99.90
5130;DHT22;2583;50.946;6.954;2022-11-14T17:41:55;10.20;99.90
5130;DHT22;2583;50.946;6.954;2022-11-14T17:44:22;10.20;99.90
5130;DHT22;2583;50.946;6.954;2022-11-14T17:46:48;10.20;99.90
5130;DHT22;2583;50.946;6.954;2022-11-14T17:49:15;10.20;99.90
5130;DHT22;2583;50.946;6.954;2022-11-14T17:51:42;10.20;99.90
5130;DHT22;2583;50.946;6.954;2022-11-14T17:54:09;10.20;99.90
5130;DHT22;2583;50.946;6.954;2022-11-14T17:56:35;10.20;99.90
5130;DHT22;2583;50.946;6.954;2022-11-14T17:59:09;10.20;99.90
5130;DHT22;2583;50.946;6.954;2022-11-14T18:01:36;10.10;99.90
5130;DHT22;2583;50.946;6.954;2022-11-14T18:04:03;10.20;99.90
5130;DHT22;2583;50.946;6.954;2022-11-14T18:06:32;10.10;99.90
5130;DHT22;2583;50.946;6.954;2022-11-14T18:08:59;10.20;99.90
5130;DHT22;2583;50.946;6.954;2022-11-14T18:11:30;10.20;99.90
5130;DHT22;2583;50.946;6.954;2022-11-14T18:13:57;10.10;99.90
5130;DHT22;2583;50.946;6.954;2022-11-14T18:16:24;10.10;99.90
5130;DHT22;2583;50.946;6.954;2022-11-14T18:19:05;10.10;99.90
5130;DHT22;2583;50.946;6.954;2022-11-14T18:21:32;10.10;99.90
5130;DHT22;2583;50.946;6.954;2022-11-14T18:23:59;10.00;99.90
5130;DHT22;2583;50.946;6.954;2022-11-14T18:26:27;10.00;99.90
5130;DHT22;2583;50.946;6.954;2022-11-14T18:28:55;10.00;99.90
5130;DHT22;2583;50.946;6.954;2022-11-14T18:31:23;9.90;99.90
5130;DHT22;2583;50.946;6.954;2022-11-14T18:33:50;9.90;99.90
5130;DHT22;2583;50.946;6.954;2022-11-14T18:36:17;9.90;99.90